SWA3184 KMCO-MWCR
Flight info
| Callsign | SWA3184 |
|---|---|
| Flight time | N/A |
| Altitude | 35000 |
| Route | FSHUN4 PLUMR DCT SHEEK Q118 FEMID Q79 MCLAW Y442 FUNDI UM335 ALVEK UM328 UCL DCT LACET L465 GCM |
| Aircraft | B738/M-SDGIJ1LRWY/SB1 |
Departure
| Time | 2026-05-06 17:28 |
|---|---|
| Airport | Orlando International Airport (KMCO) |
Arrival
| Time | N/A |
|---|---|
| Airport | Owen Roberts International Airport (MWCR) |
| Time | Latitude | Longitude | Altitude | Speed | Heading |
|---|---|---|---|---|---|
| 2026-05-06 16:56 | 28.43601 | -81.30239 | 90 ft | 0 kts | 179° |
| 2026-05-06 17:16 | 28.43608 | -81.30240 | 90 ft | 2 kts | 179° |
| 2026-05-06 17:17 | 28.43624 | -81.30240 | 90 ft | 2 kts | 179° |
| 2026-05-06 17:17 | 28.43639 | -81.30240 | 90 ft | 2 kts | 179° |
| 2026-05-06 17:17 | 28.43651 | -81.30240 | 90 ft | 0 kts | 179° |
| 2026-05-06 17:17 | 28.43665 | -81.30242 | 90 ft | 2 kts | 159° |
| 2026-05-06 17:18 | 28.43678 | -81.30250 | 90 ft | 2 kts | 139° |
| 2026-05-06 17:18 | 28.43688 | -81.30263 | 90 ft | 2 kts | 117° |
| 2026-05-06 17:18 | 28.43693 | -81.30280 | 90 ft | 2 kts | 97° |
| 2026-05-06 17:18 | 28.43692 | -81.30297 | 90 ft | 2 kts | 76° |
| 2026-05-06 17:19 | 28.43687 | -81.30312 | 90 ft | 1 kts | 56° |
| 2026-05-06 17:19 | 28.43683 | -81.30318 | 90 ft | 1 kts | 51° |
| 2026-05-06 17:19 | 28.43682 | -81.30319 | 90 ft | 0 kts | 52° |
| 2026-05-06 17:22 | 28.43692 | -81.30305 | 90 ft | 7 kts | 52° |
| 2026-05-06 17:22 | 28.43740 | -81.30263 | 90 ft | 10 kts | 16° |
| 2026-05-06 17:22 | 28.43829 | -81.30252 | 90 ft | 13 kts | 3° |
| 2026-05-06 17:22 | 28.43901 | -81.30275 | 90 ft | 9 kts | 300° |
| 2026-05-06 17:23 | 28.43912 | -81.30358 | 90 ft | 14 kts | 274° |
| 2026-05-06 17:23 | 28.43919 | -81.30506 | 90 ft | 18 kts | 274° |
| 2026-05-06 17:23 | 28.43927 | -81.30641 | 90 ft | 16 kts | 273° |
| 2026-05-06 17:23 | 28.43935 | -81.30776 | 90 ft | 17 kts | 275° |
| 2026-05-06 17:24 | 28.43942 | -81.30925 | 90 ft | 20 kts | 272° |
| 2026-05-06 17:24 | 28.43942 | -81.31092 | 90 ft | 22 kts | 266° |
| 2026-05-06 17:24 | 28.43930 | -81.31275 | 90 ft | 23 kts | 266° |
| 2026-05-06 17:24 | 28.43924 | -81.31448 | 91 ft | 20 kts | 270° |
| 2026-05-06 17:25 | 28.43922 | -81.31594 | 91 ft | 16 kts | 269° |
| 2026-05-06 17:25 | 28.43921 | -81.31715 | 91 ft | 13 kts | 270° |
| 2026-05-06 17:25 | 28.43925 | -81.31819 | 92 ft | 13 kts | 289° |
| 2026-05-06 17:25 | 28.44008 | -81.31882 | 92 ft | 16 kts | 342° |
| 2026-05-06 17:26 | 28.44128 | -81.31899 | 92 ft | 18 kts | 1° |
| 2026-05-06 17:26 | 28.44267 | -81.31898 | 93 ft | 20 kts | 359° |
| 2026-05-06 17:26 | 28.44422 | -81.31901 | 93 ft | 23 kts | 360° |
| 2026-05-06 17:26 | 28.44590 | -81.31902 | 93 ft | 25 kts | 360° |
| 2026-05-06 17:27 | 28.44709 | -81.31954 | 93 ft | 16 kts | 287° |
| 2026-05-06 17:27 | 28.44715 | -81.32070 | 93 ft | 13 kts | 269° |
| 2026-05-06 17:27 | 28.44713 | -81.32164 | 93 ft | 12 kts | 264° |
| 2026-05-06 17:27 | 28.44610 | -81.32226 | 93 ft | 31 kts | 180° |
| 2026-05-06 17:28 | 28.44094 | -81.32219 | 93 ft | 113 kts | 180° |
| 2026-05-06 17:28 | 28.43038 | -81.32205 | 147 ft | 174 kts | 179° |
| 2026-05-06 17:28 | 28.41848 | -81.32196 | 1062 ft | 169 kts | 179° |
| 2026-05-06 17:28 | 28.40685 | -81.32235 | 1740 ft | 172 kts | 181° |
| 2026-05-06 17:29 | 28.39432 | -81.32313 | 2248 ft | 184 kts | 181° |
| 2026-05-06 17:29 | 28.38104 | -81.32374 | 2763 ft | 195 kts | 181° |
| 2026-05-06 17:29 | 28.36681 | -81.32430 | 3240 ft | 211 kts | 181° |
| 2026-05-06 17:29 | 28.35152 | -81.32491 | 3738 ft | 228 kts | 181° |
| 2026-05-06 17:30 | 28.33499 | -81.32587 | 4281 ft | 242 kts | 185° |
| 2026-05-06 17:30 | 28.31816 | -81.33048 | 4880 ft | 254 kts | 199° |
| 2026-05-06 17:30 | 28.30142 | -81.33813 | 5582 ft | 261 kts | 202° |
| 2026-05-06 17:30 | 28.28437 | -81.34624 | 6287 ft | 269 kts | 202° |
| 2026-05-06 17:31 | 28.26642 | -81.35439 | 6842 ft | 284 kts | 201° |
| 2026-05-06 17:31 | 28.24760 | -81.36261 | 7492 ft | 294 kts | 201° |
| 2026-05-06 17:31 | 28.22839 | -81.37086 | 8263 ft | 298 kts | 201° |
| 2026-05-06 17:31 | 28.20865 | -81.37933 | 9034 ft | 302 kts | 201° |
| 2026-05-06 17:32 | 28.18874 | -81.38789 | 9793 ft | 306 kts | 202° |
| 2026-05-06 17:32 | 28.16868 | -81.39654 | 10426 ft | 315 kts | 202° |
| 2026-05-06 17:32 | 28.14754 | -81.40566 | 10852 ft | 331 kts | 202° |
| 2026-05-06 17:32 | 28.12523 | -81.41528 | 11239 ft | 348 kts | 202° |
| 2026-05-06 17:33 | 28.10216 | -81.42522 | 11624 ft | 363 kts | 202° |
| 2026-05-06 17:33 | 28.07757 | -81.43581 | 11961 ft | 379 kts | 202° |
| 2026-05-06 17:33 | 28.05247 | -81.44659 | 12543 ft | 387 kts | 202° |
| 2026-05-06 17:33 | 28.02714 | -81.45746 | 13112 ft | 394 kts | 203° |
| 2026-05-06 17:34 | 28.00119 | -81.46858 | 13840 ft | 395 kts | 203° |
| 2026-05-06 17:34 | 27.97516 | -81.47974 | 14486 ft | 399 kts | 204° |
| 2026-05-06 17:34 | 27.94904 | -81.49116 | 15142 ft | 402 kts | 205° |
| 2026-05-06 17:34 | 27.92356 | -81.50429 | 15792 ft | 402 kts | 211° |
| 2026-05-06 17:35 | 27.89910 | -81.52032 | 16416 ft | 403 kts | 216° |
| 2026-05-06 17:35 | 27.87574 | -81.53841 | 17003 ft | 405 kts | 220° |
| 2026-05-06 17:35 | 27.85309 | -81.55756 | 17629 ft | 406 kts | 221° |
| 2026-05-06 17:36 | 27.80782 | -81.59735 | 18776 ft | 412 kts | 222° |
| 2026-05-06 17:36 | 27.78519 | -81.61721 | 19393 ft | 413 kts | 222° |
| 2026-05-06 17:36 | 27.76207 | -81.63731 | 19945 ft | 417 kts | 222° |
| 2026-05-06 17:36 | 27.73877 | -81.65738 | 20523 ft | 419 kts | 222° |
| 2026-05-06 17:37 | 27.71518 | -81.67761 | 21087 ft | 421 kts | 221° |
| 2026-05-06 17:37 | 27.69175 | -81.69759 | 21625 ft | 424 kts | 221° |
| 2026-05-06 17:37 | 27.66708 | -81.71739 | 22188 ft | 428 kts | 219° |
| 2026-05-06 17:37 | 27.64139 | -81.73552 | 22699 ft | 434 kts | 213° |
| 2026-05-06 17:38 | 27.61339 | -81.74924 | 23151 ft | 444 kts | 203° |
| 2026-05-06 17:38 | 27.58254 | -81.75787 | 23660 ft | 453 kts | 193° |
| 2026-05-06 17:38 | 27.55045 | -81.76078 | 24127 ft | 461 kts | 184° |
| 2026-05-06 17:38 | 27.51768 | -81.75822 | 24576 ft | 468 kts | 176° |
| 2026-05-06 17:39 | 27.48472 | -81.75272 | 25024 ft | 473 kts | 174° |
| 2026-05-06 17:39 | 27.45188 | -81.74596 | 25463 ft | 476 kts | 172° |
| 2026-05-06 17:39 | 27.41886 | -81.73852 | 25859 ft | 481 kts | 172° |
| 2026-05-06 17:39 | 27.38558 | -81.73074 | 26299 ft | 483 kts | 172° |
| 2026-05-06 17:40 | 27.35191 | -81.72280 | 26708 ft | 487 kts | 172° |
| 2026-05-06 17:40 | 27.32063 | -81.71546 | 27101 ft | 489 kts | 172° |
| 2026-05-06 17:40 | 27.28729 | -81.70772 | 27514 ft | 491 kts | 172° |
| 2026-05-06 17:40 | 27.25517 | -81.70033 | 27889 ft | 494 kts | 172° |
| 2026-05-06 17:41 | 27.23257 | -81.69519 | 28121 ft | 496 kts | 172° |
| 2026-05-06 17:41 | 27.18679 | -81.68484 | 28660 ft | 499 kts | 172° |
| 2026-05-06 17:41 | 27.16446 | -81.67983 | 28877 ft | 501 kts | 172° |